sensor_id;sensor_type;location;lat;lon;timestamp;P1;durP1;ratioP1;P2;durP2;ratioP2
38581;SDS011;24349;53.720;10.014;2023-05-10T00:01:22;6.22;;;3.78;;
38581;SDS011;24349;53.720;10.014;2023-05-10T00:03:48;7.10;;;3.60;;
38581;SDS011;24349;53.720;10.014;2023-05-10T00:06:14;6.93;;;3.78;;
38581;SDS011;24349;53.720;10.014;2023-05-10T00:08:39;7.63;;;3.88;;
38581;SDS011;24349;53.720;10.014;2023-05-10T00:11:05;10.43;;;4.43;;
38581;SDS011;24349;53.720;10.014;2023-05-10T00:13:31;6.95;;;3.65;;
38581;SDS011;24349;53.720;10.014;2023-05-10T00:15:56;9.38;;;4.28;;
38581;SDS011;24349;53.720;10.014;2023-05-10T00:18:22;6.80;;;4.10;;
38581;SDS011;24349;53.720;10.014;2023-05-10T00:20:48;9.35;;;4.00;;
38581;SDS011;24349;53.720;10.014;2023-05-10T00:23:14;8.77;;;3.60;;
38581;SDS011;24349;53.720;10.014;2023-05-10T00:25:39;8.23;;;3.83;;
38581;SDS011;24349;53.720;10.014;2023-05-10T00:28:05;6.18;;;4.00;;
38581;SDS011;24349;53.720;10.014;2023-05-10T00:30:31;6.80;;;3.88;;
38581;SDS011;24349;53.720;10.014;2023-05-10T00:32:56;7.60;;;3.67;;
38581;SDS011;24349;53.720;10.014;2023-05-10T00:35:22;7.28;;;3.55;;
38581;SDS011;24349;53.720;10.014;2023-05-10T00:37:48;7.68;;;4.70;;
38581;SDS011;24349;53.720;10.014;2023-05-10T00:40:13;8.55;;;4.00;;
38581;SDS011;24349;53.720;10.014;2023-05-10T00:42:39;6.45;;;3.63;;
38581;SDS011;24349;53.720;10.014;2023-05-10T00:45:05;9.15;;;3.70;;
38581;SDS011;24349;53.720;10.014;2023-05-10T00:47:32;6.32;;;3.60;;
38581;SDS011;24349;53.720;10.014;2023-05-10T00:49:58;6.63;;;4.03;;
38581;SDS011;24349;53.720;10.014;2023-05-10T00:52:25;8.38;;;3.90;;
38581;SDS011;24349;53.720;10.014;2023-05-10T00:54:54;6.97;;;3.95;;
38581;SDS011;24349;53.720;10.014;2023-05-10T00:57:21;6.70;;;3.95;;
38581;SDS011;24349;53.720;10.014;2023-05-10T00:59:47;6.75;;;3.85;;
38581;SDS011;24349;53.720;10.014;2023-05-10T01:02:13;12.07;;;4.00;;
38581;SDS011;24349;53.720;10.014;2023-05-10T01:04:39;8.93;;;4.32;;
38581;SDS011;24349;53.720;10.014;2023-05-10T01:07:05;7.78;;;3.97;;
38581;SDS011;24349;53.720;10.014;2023-05-10T01:09:31;7.32;;;3.80;;
38581;SDS011;24349;53.720;10.014;2023-05-10T01:11:57;9.52;;;4.78;;
38581;SDS011;24349;53.720;10.014;2023-05-10T01:14:24;7.40;;;3.90;;
38581;SDS011;24349;53.720;10.014;2023-05-10T01:16:51;8.50;;;3.97;;
38581;SDS011;24349;53.720;10.014;2023-05-10T01:19:20;8.07;;;4.22;;
38581;SDS011;24349;53.720;10.014;2023-05-10T01:22:01;6.13;;;3.83;;
38581;SDS011;24349;53.720;10.014;2023-05-10T01:33:11;7.60;;;3.67;;
38581;SDS011;24349;53.720;10.014;2023-05-10T01:35:55;9.13;;;3.70;;
38581;SDS011;24349;53.720;10.014;2023-05-10T01:38:50;8.98;;;4.28;;
38581;SDS011;24349;53.720;10.014;2023-05-10T01:44:18;8.82;;;3.90;;
38581;SDS011;24349;53.720;10.014;2023-05-10T01:46:53;7.50;;;3.95;;
38581;SDS011;24349;53.720;10.014;2023-05-10T01:49:30;7.03;;;3.90;;
38581;SDS011;24349;53.720;10.014;2023-05-10T01:52:03;7.20;;;3.90;;
38581;SDS011;24349;53.720;10.014;2023-05-10T01:54:33;6.90;;;3.97;;
38581;SDS011;24349;53.720;10.014;2023-05-10T01:57:01;9.25;;;3.90;;
38581;SDS011;24349;53.720;10.014;2023-05-10T01:59:31;8.07;;;4.18;;
38581;SDS011;24349;53.720;10.014;2023-05-10T02:02:05;6.45;;;4.00;;
38581;SDS011;24349;53.720;10.014;2023-05-10T02:04:33;9.32;;;3.85;;
38581;SDS011;24349;53.720;10.014;2023-05-10T02:07:02;8.77;;;3.78;;
38581;SDS011;24349;53.720;10.014;2023-05-10T02:09:28;8.88;;;4.00;;
38581;SDS011;24349;53.720;10.014;2023-05-10T02:11:57;6.90;;;4.53;;
38581;SDS011;24349;53.720;10.014;2023-05-10T02:14:24;6.20;;;3.92;;
38581;SDS011;24349;53.720;10.014;2023-05-10T02:16:51;8.68;;;4.28;;
38581;SDS011;24349;53.720;10.014;2023-05-10T02:19:20;7.50;;;3.97;;
38581;SDS011;24349;53.720;10.014;2023-05-10T02:21:48;9.52;;;4.07;;
38581;SDS011;24349;53.720;10.014;2023-05-10T02:24:16;9.27;;;4.38;;
38581;SDS011;24349;53.720;10.014;2023-05-10T02:26:42;7.43;;;4.60;;
38581;SDS011;24349;53.720;10.014;2023-05-10T02:29:10;8.50;;;4.30;;
38581;SDS011;24349;53.720;10.014;2023-05-10T02:31:37;7.25;;;4.10;;
38581;SDS011;24349;53.720;10.014;2023-05-10T02:34:03;6.32;;;3.50;;
38581;SDS011;24349;53.720;10.014;2023-05-10T02:36:32;6.93;;;4.10;;
38581;SDS011;24349;53.720;10.014;2023-05-10T02:38:58;6.35;;;3.90;;
38581;SDS011;24349;53.720;10.014;2023-05-10T02:41:26;7.43;;;4.22;;
38581;SDS011;24349;53.720;10.014;2023-05-10T02:43:55;8.35;;;3.95;;
38581;SDS011;24349;53.720;10.014;2023-05-10T02:46:24;8.68;;;4.75;;
38581;SDS011;24349;53.720;10.014;2023-05-10T02:48:49;7.82;;;4.00;;
38581;SDS011;24349;53.720;10.014;2023-05-10T02:51:15;8.85;;;4.30;;
38581;SDS011;24349;53.720;10.014;2023-05-10T02:53:43;8.50;;;4.05;;
38581;SDS011;24349;53.720;10.014;2023-05-10T02:56:12;7.32;;;4.20;;
38581;SDS011;24349;53.720;10.014;2023-05-10T02:58:46;6.78;;;4.03;;
38581;SDS011;24349;53.720;10.014;2023-05-10T03:01:12;6.63;;;4.00;;
38581;SDS011;24349;53.720;10.014;2023-05-10T03:03:37;7.15;;;4.20;;
38581;SDS011;24349;53.720;10.014;2023-05-10T03:06:03;6.97;;;4.10;;
38581;SDS011;24349;53.720;10.014;2023-05-10T03:08:29;6.93;;;3.90;;
38581;SDS011;24349;53.720;10.014;2023-05-10T03:17:15;8.55;;;3.80;;
38581;SDS011;24349;53.720;10.014;2023-05-10T03:19:27;7.60;;;4.30;;
38581;SDS011;24349;53.720;10.014;2023-05-10T03:22:17;10.02;;;3.90;;
38581;SDS011;24349;53.720;10.014;2023-05-10T03:24:56;5.97;;;3.70;;
38581;SDS011;24349;53.720;10.014;2023-05-10T03:27:23;6.82;;;4.18;;
38581;SDS011;24349;53.720;10.014;2023-05-10T03:29:51;6.78;;;4.40;;
38581;SDS011;24349;53.720;10.014;2023-05-10T03:32:18;7.22;;;4.32;;
38581;SDS011;24349;53.720;10.014;2023-05-10T03:34:44;8.68;;;4.07;;
38581;SDS011;24349;53.720;10.014;2023-05-10T03:37:09;8.52;;;4.00;;
38581;SDS011;24349;53.720;10.014;2023-05-10T03:39:35;8.20;;;4.22;;
38581;SDS011;24349;53.720;10.014;2023-05-10T03:42:01;6.03;;;4.28;;
38581;SDS011;24349;53.720;10.014;2023-05-10T03:44:26;9.80;;;4.28;;
38581;SDS011;24349;53.720;10.014;2023-05-10T03:46:52;6.70;;;4.38;;
38581;SDS011;24349;53.720;10.014;2023-05-10T03:49:18;6.32;;;4.68;;
38581;SDS011;24349;53.720;10.014;2023-05-10T03:51:43;9.18;;;4.55;;
38581;SDS011;24349;53.720;10.014;2023-05-10T03:54:09;6.63;;;4.55;;
38581;SDS011;24349;53.720;10.014;2023-05-10T03:56:34;9.75;;;5.22;;
38581;SDS011;24349;53.720;10.014;2023-05-10T03:59:00;7.50;;;4.40;;
38581;SDS011;24349;53.720;10.014;2023-05-10T04:01:26;6.90;;;4.20;;
38581;SDS011;24349;53.720;10.014;2023-05-10T04:03:52;8.27;;;4.30;;
38581;SDS011;24349;53.720;10.014;2023-05-10T04:06:17;8.13;;;4.47;;
38581;SDS011;24349;53.720;10.014;2023-05-10T04:08:43;6.95;;;3.88;;
38581;SDS011;24349;53.720;10.014;2023-05-10T04:11:09;9.35;;;4.38;;
38581;SDS011;24349;53.720;10.014;2023-05-10T04:13:36;7.72;;;4.85;;
38581;SDS011;24349;53.720;10.014;2023-05-10T04:16:01;9.10;;;4.68;;
38581;SDS011;24349;53.720;10.014;2023-05-10T04:18:27;8.45;;;4.38;;
38581;SDS011;24349;53.720;10.014;2023-05-10T04:20:53;8.75;;;4.78;;
38581;SDS011;24349;53.720;10.014;2023-05-10T04:23:19;8.20;;;4.45;;
38581;SDS011;24349;53.720;10.014;2023-05-10T04:25:44;7.53;;;4.43;;
38581;SDS011;24349;53.720;10.014;2023-05-10T04:28:10;6.72;;;4.30;;
38581;SDS011;24349;53.720;10.014;2023-05-10T04:30:35;9.80;;;4.50;;
38581;SDS011;24349;53.720;10.014;2023-05-10T04:33:01;9.07;;;4.30;;
38581;SDS011;24349;53.720;10.014;2023-05-10T04:35:27;7.85;;;4.70;;
38581;SDS011;24349;53.720;10.014;2023-05-10T04:37:53;6.70;;;4.50;;
38581;SDS011;24349;53.720;10.014;2023-05-10T04:40:19;11.90;;;5.20;;
38581;SDS011;24349;53.720;10.014;2023-05-10T04:42:45;9.00;;;4.65;;
38581;SDS011;24349;53.720;10.014;2023-05-10T04:45:10;6.40;;;3.88;;
38581;SDS011;24349;53.720;10.014;2023-05-10T04:47:36;6.40;;;4.38;;
38581;SDS011;24349;53.720;10.014;2023-05-10T04:50:02;8.30;;;4.38;;
38581;SDS011;24349;53.720;10.014;2023-05-10T04:52:28;7.57;;;4.53;;
38581;SDS011;24349;53.720;10.014;2023-05-10T04:54:54;8.05;;;4.20;;
38581;SDS011;24349;53.720;10.014;2023-05-10T04:57:20;8.02;;;4.75;;
38581;SDS011;24349;53.720;10.014;2023-05-10T04:59:46;7.47;;;4.63;;
38581;SDS011;24349;53.720;10.014;2023-05-10T05:02:11;7.25;;;4.47;;
38581;SDS011;24349;53.720;10.014;2023-05-10T05:04:37;8.85;;;5.07;;
38581;SDS011;24349;53.720;10.014;2023-05-10T05:07:03;7.13;;;4.50;;
38581;SDS011;24349;53.720;10.014;2023-05-10T05:09:28;6.43;;;4.28;;
38581;SDS011;24349;53.720;10.014;2023-05-10T05:11:54;6.45;;;4.13;;
38581;SDS011;24349;53.720;10.014;2023-05-10T05:14:19;7.53;;;4.78;;
38581;SDS011;24349;53.720;10.014;2023-05-10T05:16:50;7.32;;;4.40;;
38581;SDS011;24349;53.720;10.014;2023-05-10T05:19:16;6.97;;;4.57;;
38581;SDS011;24349;53.720;10.014;2023-05-10T05:21:41;7.38;;;4.97;;
38581;SDS011;24349;53.720;10.014;2023-05-10T05:24:07;8.13;;;4.47;;
38581;SDS011;24349;53.720;10.014;2023-05-10T05:26:33;6.60;;;4.20;;
38581;SDS011;24349;53.720;10.014;2023-05-10T05:28:59;6.63;;;4.57;;
38581;SDS011;24349;53.720;10.014;2023-05-10T05:31:24;7.75;;;4.07;;
38581;SDS011;24349;53.720;10.014;2023-05-10T05:33:50;7.38;;;4.72;;
38581;SDS011;24349;53.720;10.014;2023-05-10T05:36:16;7.50;;;4.10;;
38581;SDS011;24349;53.720;10.014;2023-05-10T05:38:41;8.15;;;4.30;;
38581;SDS011;24349;53.720;10.014;2023-05-10T05:41:08;9.20;;;4.93;;
38581;SDS011;24349;53.720;10.014;2023-05-10T05:43:33;7.85;;;4.65;;
38581;SDS011;24349;53.720;10.014;2023-05-10T05:45:59;6.43;;;4.30;;
38581;SDS011;24349;53.720;10.014;2023-05-10T05:48:24;7.22;;;3.90;;
38581;SDS011;24349;53.720;10.014;2023-05-10T05:50:53;8.27;;;4.40;;
38581;SDS011;24349;53.720;10.014;2023-05-10T05:53:20;7.03;;;4.57;;
38581;SDS011;24349;53.720;10.014;2023-05-10T05:55:55;7.45;;;4.50;;
38581;SDS011;24349;53.720;10.014;2023-05-10T05:58:22;8.18;;;4.40;;
38581;SDS011;24349;53.720;10.014;2023-05-10T06:00:49;5.95;;;4.25;;
38581;SDS011;24349;53.720;10.014;2023-05-10T06:03:15;8.48;;;4.88;;
38581;SDS011;24349;53.720;10.014;2023-05-10T06:05:41;7.53;;;4.20;;
38581;SDS011;24349;53.720;10.014;2023-05-10T06:08:06;8.13;;;4.63;;
38581;SDS011;24349;53.720;10.014;2023-05-10T06:10:32;6.72;;;4.57;;
38581;SDS011;24349;53.720;10.014;2023-05-10T06:12:57;10.10;;;4.85;;
38581;SDS011;24349;53.720;10.014;2023-05-10T06:15:23;7.63;;;4.15;;
38581;SDS011;24349;53.720;10.014;2023-05-10T06:17:48;8.00;;;4.85;;
38581;SDS011;24349;53.720;10.014;2023-05-10T06:20:15;7.65;;;4.47;;
38581;SDS011;24349;53.720;10.014;2023-05-10T06:22:41;6.88;;;4.75;;
38581;SDS011;24349;53.720;10.014;2023-05-10T06:25:07;7.22;;;4.20;;
38581;SDS011;24349;53.720;10.014;2023-05-10T06:27:33;6.82;;;4.28;;
38581;SDS011;24349;53.720;10.014;2023-05-10T06:29:59;12.32;;;4.50;;
38581;SDS011;24349;53.720;10.014;2023-05-10T06:32:24;7.72;;;4.85;;
38581;SDS011;24349;53.720;10.014;2023-05-10T06:34:50;7.70;;;3.95;;
38581;SDS011;24349;53.720;10.014;2023-05-10T06:37:15;8.88;;;4.25;;
38581;SDS011;24349;53.720;10.014;2023-05-10T06:39:41;7.68;;;4.40;;
38581;SDS011;24349;53.720;10.014;2023-05-10T06:42:07;7.95;;;4.70;;
38581;SDS011;24349;53.720;10.014;2023-05-10T06:44:33;6.82;;;4.32;;
38581;SDS011;24349;53.720;10.014;2023-05-10T06:46:58;7.47;;;4.75;;
38581;SDS011;24349;53.720;10.014;2023-05-10T06:49:24;6.40;;;4.10;;
38581;SDS011;24349;53.720;10.014;2023-05-10T06:51:50;8.90;;;4.70;;
38581;SDS011;24349;53.720;10.014;2023-05-10T06:54:15;8.27;;;4.15;;
38581;SDS011;24349;53.720;10.014;2023-05-10T06:56:41;7.35;;;4.85;;
38581;SDS011;24349;53.720;10.014;2023-05-10T06:59:07;7.68;;;4.10;;
38581;SDS011;24349;53.720;10.014;2023-05-10T07:01:32;11.27;;;4.45;;
38581;SDS011;24349;53.720;10.014;2023-05-10T07:03:58;6.63;;;4.57;;
38581;SDS011;24349;53.720;10.014;2023-05-10T07:06:23;8.10;;;4.57;;
38581;SDS011;24349;53.720;10.014;2023-05-10T07:08:49;8.10;;;4.43;;
38581;SDS011;24349;53.720;10.014;2023-05-10T07:11:15;6.35;;;4.65;;
38581;SDS011;24349;53.720;10.014;2023-05-10T07:13:41;7.05;;;4.45;;
38581;SDS011;24349;53.720;10.014;2023-05-10T07:16:09;6.40;;;4.30;;
38581;SDS011;24349;53.720;10.014;2023-05-10T07:18:34;8.85;;;4.10;;
38581;SDS011;24349;53.720;10.014;2023-05-10T07:21:00;9.15;;;4.50;;
38581;SDS011;24349;53.720;10.014;2023-05-10T07:23:26;6.95;;;4.10;;
38581;SDS011;24349;53.720;10.014;2023-05-10T07:25:52;7.30;;;4.60;;
38581;SDS011;24349;53.720;10.014;2023-05-10T07:28:18;8.35;;;4.05;;
38581;SDS011;24349;53.720;10.014;2023-05-10T07:30:44;5.75;;;3.92;;
38581;SDS011;24349;53.720;10.014;2023-05-10T07:33:10;9.32;;;4.57;;
38581;SDS011;24349;53.720;10.014;2023-05-10T07:35:37;8.15;;;4.50;;
38581;SDS011;24349;53.720;10.014;2023-05-10T07:38:02;7.75;;;4.47;;
38581;SDS011;24349;53.720;10.014;2023-05-10T07:40:28;7.07;;;3.92;;
38581;SDS011;24349;53.720;10.014;2023-05-10T07:42:54;8.02;;;3.90;;
38581;SDS011;24349;53.720;10.014;2023-05-10T07:45:19;7.32;;;4.00;;
38581;SDS011;24349;53.720;10.014;2023-05-10T07:47:45;6.43;;;4.65;;
38581;SDS011;24349;53.720;10.014;2023-05-10T07:50:11;6.03;;;4.60;;
38581;SDS011;24349;53.720;10.014;2023-05-10T07:52:36;10.63;;;4.55;;
38581;SDS011;24349;53.720;10.014;2023-05-10T07:55:02;9.23;;;5.25;;
38581;SDS011;24349;53.720;10.014;2023-05-10T07:57:28;7.20;;;4.32;;
38581;SDS011;24349;53.720;10.014;2023-05-10T07:59:54;8.05;;;4.13;;
38581;SDS011;24349;53.720;10.014;2023-05-10T08:02:19;6.35;;;3.90;;
38581;SDS011;24349;53.720;10.014;2023-05-10T08:04:45;9.23;;;4.57;;
38581;SDS011;24349;53.720;10.014;2023-05-10T08:07:10;10.38;;;5.10;;
38581;SDS011;24349;53.720;10.014;2023-05-10T08:09:36;6.97;;;4.85;;
38581;SDS011;24349;53.720;10.014;2023-05-10T08:12:02;8.10;;;4.05;;
38581;SDS011;24349;53.720;10.014;2023-05-10T08:14:28;7.43;;;4.55;;
38581;SDS011;24349;53.720;10.014;2023-05-10T08:16:54;7.45;;;4.43;;
38581;SDS011;24349;53.720;10.014;2023-05-10T08:19:20;6.80;;;4.10;;
38581;SDS011;24349;53.720;10.014;2023-05-10T08:21:47;7.95;;;4.75;;
38581;SDS011;24349;53.720;10.014;2023-05-10T08:24:13;6.20;;;4.28;;
38581;SDS011;24349;53.720;10.014;2023-05-10T08:26:39;12.27;;;4.35;;
38581;SDS011;24349;53.720;10.014;2023-05-10T08:29:05;8.68;;;4.55;;
38581;SDS011;24349;53.720;10.014;2023-05-10T08:31:30;8.45;;;5.10;;
38581;SDS011;24349;53.720;10.014;2023-05-10T08:33:56;7.55;;;4.10;;
38581;SDS011;24349;53.720;10.014;2023-05-10T08:36:22;6.78;;;4.47;;
38581;SDS011;24349;53.720;10.014;2023-05-10T08:38:52;7.50;;;5.05;;
38581;SDS011;24349;53.720;10.014;2023-05-10T08:41:19;6.97;;;4.47;;
38581;SDS011;24349;53.720;10.014;2023-05-10T08:43:46;8.52;;;4.97;;
38581;SDS011;24349;53.720;10.014;2023-05-10T08:48:42;6.97;;;4.43;;
38581;SDS011;24349;53.720;10.014;2023-05-10T08:51:09;7.88;;;4.72;;
38581;SDS011;24349;53.720;10.014;2023-05-10T08:53:42;7.03;;;4.60;;
38581;SDS011;24349;53.720;10.014;2023-05-10T08:56:09;7.00;;;4.88;;
38581;SDS011;24349;53.720;10.014;2023-05-10T08:58:34;6.85;;;4.70;;
38581;SDS011;24349;53.720;10.014;2023-05-10T09:01:01;6.28;;;4.25;;
38581;SDS011;24349;53.720;10.014;2023-05-10T09:03:28;7.32;;;4.60;;
38581;SDS011;24349;53.720;10.014;2023-05-10T09:05:54;8.70;;;5.10;;
38581;SDS011;24349;53.720;10.014;2023-05-10T09:08:24;8.70;;;4.50;;
38581;SDS011;24349;53.720;10.014;2023-05-10T09:10:53;9.23;;;4.97;;
38581;SDS011;24349;53.720;10.014;2023-05-10T09:13:19;7.55;;;4.53;;
38581;SDS011;24349;53.720;10.014;2023-05-10T09:15:47;11.90;;;5.05;;
38581;SDS011;24349;53.720;10.014;2023-05-10T09:18:13;7.50;;;5.28;;
38581;SDS011;24349;53.720;10.014;2023-05-10T09:20:39;6.78;;;4.47;;
38581;SDS011;24349;53.720;10.014;2023-05-10T09:23:05;8.52;;;4.90;;
38581;SDS011;24349;53.720;10.014;2023-05-10T09:25:31;7.25;;;4.25;;
38581;SDS011;24349;53.720;10.014;2023-05-10T09:27:58;8.30;;;5.07;;
38581;SDS011;24349;53.720;10.014;2023-05-10T09:30:25;7.70;;;4.50;;
38581;SDS011;24349;53.720;10.014;2023-05-10T09:32:53;6.30;;;4.80;;
38581;SDS011;24349;53.720;10.014;2023-05-10T09:35:20;7.03;;;4.78;;
38581;SDS011;24349;53.720;10.014;2023-05-10T09:37:50;6.72;;;4.95;;
38581;SDS011;24349;53.720;10.014;2023-05-10T09:40:28;7.78;;;5.15;;
38581;SDS011;24349;53.720;10.014;2023-05-10T09:43:01;9.68;;;5.20;;
38581;SDS011;24349;53.720;10.014;2023-05-10T09:45:30;9.13;;;5.60;;
38581;SDS011;24349;53.720;10.014;2023-05-10T09:47:57;7.45;;;5.50;;
38581;SDS011;24349;53.720;10.014;2023-05-10T09:50:23;8.35;;;5.20;;
38581;SDS011;24349;53.720;10.014;2023-05-10T09:52:53;9.13;;;4.88;;
38581;SDS011;24349;53.720;10.014;2023-05-10T09:55:23;8.38;;;5.45;;
38581;SDS011;24349;53.720;10.014;2023-05-10T09:57:57;7.65;;;4.97;;
38581;SDS011;24349;53.720;10.014;2023-05-10T10:00:24;8.07;;;5.50;;
38581;SDS011;24349;53.720;10.014;2023-05-10T10:02:55;8.30;;;5.90;;
38581;SDS011;24349;53.720;10.014;2023-05-10T10:05:30;9.45;;;5.60;;
38581;SDS011;24349;53.720;10.014;2023-05-10T10:07:58;9.75;;;6.13;;
38581;SDS011;24349;53.720;10.014;2023-05-10T10:10:24;10.95;;;6.50;;
38581;SDS011;24349;53.720;10.014;2023-05-10T10:12:50;8.75;;;5.68;;
38581;SDS011;24349;53.720;10.014;2023-05-10T10:15:16;8.10;;;5.90;;
38581;SDS011;24349;53.720;10.014;2023-05-10T10:17:43;9.20;;;5.60;;
38581;SDS011;24349;53.720;10.014;2023-05-10T10:20:08;8.52;;;5.57;;
38581;SDS011;24349;53.720;10.014;2023-05-10T10:22:36;12.00;;;6.25;;
38581;SDS011;24349;53.720;10.014;2023-05-10T10:25:02;8.90;;;5.85;;
38581;SDS011;24349;53.720;10.014;2023-05-10T10:27:35;9.05;;;5.55;;
38581;SDS011;24349;53.720;10.014;2023-05-10T10:35:46;13.52;;;7.53;;
38581;SDS011;24349;53.720;10.014;2023-05-10T10:38:13;12.18;;;8.15;;
38581;SDS011;24349;53.720;10.014;2023-05-10T10:40:38;10.98;;;7.75;;
38581;SDS011;24349;53.720;10.014;2023-05-10T10:46:23;11.63;;;8.02;;
38581;SDS011;24349;53.720;10.014;2023-05-10T10:48:50;12.40;;;8.25;;
38581;SDS011;24349;53.720;10.014;2023-05-10T10:51:36;11.63;;;9.35;;
38581;SDS011;24349;53.720;10.014;2023-05-10T10:54:09;11.60;;;9.95;;
38581;SDS011;24349;53.720;10.014;2023-05-10T10:56:35;12.80;;;9.88;;
38581;SDS011;24349;53.720;10.014;2023-05-10T10:59:01;13.20;;;9.52;;
38581;SDS011;24349;53.720;10.014;2023-05-10T11:01:26;11.73;;;8.65;;
38581;SDS011;24349;53.720;10.014;2023-05-10T11:04:16;11.70;;;9.57;;
38581;SDS011;24349;53.720;10.014;2023-05-10T11:06:43;12.10;;;9.88;;
38581;SDS011;24349;53.720;10.014;2023-05-10T11:09:09;14.60;;;10.00;;
38581;SDS011;24349;53.720;10.014;2023-05-10T11:11:48;10.43;;;8.98;;
38581;SDS011;24349;53.720;10.014;2023-05-10T11:14:17;15.40;;;10.27;;
38581;SDS011;24349;53.720;10.014;2023-05-10T11:16:46;12.18;;;8.60;;
38581;SDS011;24349;53.720;10.014;2023-05-10T11:19:12;13.20;;;10.32;;
38581;SDS011;24349;53.720;10.014;2023-05-10T11:26:41;12.32;;;10.80;;
38581;SDS011;24349;53.720;10.014;2023-05-10T11:29:07;13.02;;;10.45;;
38581;SDS011;24349;53.720;10.014;2023-05-10T11:31:34;14.30;;;11.20;;
38581;SDS011;24349;53.720;10.014;2023-05-10T11:34:09;13.95;;;10.65;;
38581;SDS011;24349;53.720;10.014;2023-05-10T11:36:35;12.68;;;10.48;;
38581;SDS011;24349;53.720;10.014;2023-05-10T11:39:01;14.15;;;10.57;;
38581;SDS011;24349;53.720;10.014;2023-05-10T11:41:28;13.80;;;11.25;;
38581;SDS011;24349;53.720;10.014;2023-05-10T11:43:55;12.52;;;10.52;;
38581;SDS011;24349;53.720;10.014;2023-05-10T11:46:25;12.65;;;10.52;;
38581;SDS011;24349;53.720;10.014;2023-05-10T11:48:53;11.70;;;9.57;;
38581;SDS011;24349;53.720;10.014;2023-05-10T11:51:22;12.35;;;9.38;;
38581;SDS011;24349;53.720;10.014;2023-05-10T11:53:49;12.32;;;9.23;;
38581;SDS011;24349;53.720;10.014;2023-05-10T11:56:17;12.60;;;10.10;;
38581;SDS011;24349;53.720;10.014;2023-05-10T11:58:43;12.68;;;10.35;;
38581;SDS011;24349;53.720;10.014;2023-05-10T12:01:08;12.68;;;9.70;;
38581;SDS011;24349;53.720;10.014;2023-05-10T12:03:35;11.43;;;10.02;;
38581;SDS011;24349;53.720;10.014;2023-05-10T12:06:02;13.45;;;11.45;;
38581;SDS011;24349;53.720;10.014;2023-05-10T12:08:28;11.43;;;10.02;;
38581;SDS011;24349;53.720;10.014;2023-05-10T12:11:05;10.68;;;9.27;;
38581;SDS011;24349;53.720;10.014;2023-05-10T12:13:36;13.07;;;10.23;;
38581;SDS011;24349;53.720;10.014;2023-05-10T12:16:25;11.45;;;10.15;;
38581;SDS011;24349;53.720;10.014;2023-05-10T12:18:53;12.57;;;10.38;;
38581;SDS011;24349;53.720;10.014;2023-05-10T12:21:21;11.30;;;9.98;;
38581;SDS011;24349;53.720;10.014;2023-05-10T12:23:50;11.52;;;9.93;;
38581;SDS011;24349;53.720;10.014;2023-05-10T12:26:23;12.52;;;9.85;;
38581;SDS011;24349;53.720;10.014;2023-05-10T12:28:51;14.30;;;10.30;;
38581;SDS011;24349;53.720;10.014;2023-05-10T12:31:20;13.77;;;11.23;;
38581;SDS011;24349;53.720;10.014;2023-05-10T12:33:46;13.80;;;10.95;;
38581;SDS011;24349;53.720;10.014;2023-05-10T12:36:14;13.73;;;10.82;;
38581;SDS011;24349;53.720;10.014;2023-05-10T12:38:41;15.77;;;12.57;;
38581;SDS011;24349;53.720;10.014;2023-05-10T12:41:09;15.73;;;13.57;;
38581;SDS011;24349;53.720;10.014;2023-05-10T12:43:36;14.68;;;12.65;;
38581;SDS011;24349;53.720;10.014;2023-05-10T12:46:09;14.90;;;12.77;;
38581;SDS011;24349;53.720;10.014;2023-05-10T12:48:42;14.02;;;12.52;;
38581;SDS011;24349;53.720;10.014;2023-05-10T12:51:09;13.90;;;12.50;;
38581;SDS011;24349;53.720;10.014;2023-05-10T12:53:37;15.23;;;13.15;;
38581;SDS011;24349;53.720;10.014;2023-05-10T12:56:03;13.68;;;12.32;;
38581;SDS011;24349;53.720;10.014;2023-05-10T12:58:29;13.80;;;11.10;;
38581;SDS011;24349;53.720;10.014;2023-05-10T13:00:55;12.85;;;11.55;;
38581;SDS011;24349;53.720;10.014;2023-05-10T13:03:21;11.32;;;9.68;;
38581;SDS011;24349;53.720;10.014;2023-05-10T13:05:47;11.85;;;10.25;;
38581;SDS011;24349;53.720;10.014;2023-05-10T13:08:13;11.68;;;10.48;;
38581;SDS011;24349;53.720;10.014;2023-05-10T13:10:39;15.90;;;12.75;;
38581;SDS011;24349;53.720;10.014;2023-05-10T13:13:05;16.63;;;12.60;;
38581;SDS011;24349;53.720;10.014;2023-05-10T13:15:31;15.05;;;12.05;;
38581;SDS011;24349;53.720;10.014;2023-05-10T13:17:57;12.93;;;10.90;;
38581;SDS011;24349;53.720;10.014;2023-05-10T13:20:22;13.55;;;10.60;;
38581;SDS011;24349;53.720;10.014;2023-05-10T13:22:48;10.98;;;8.30;;
38581;SDS011;24349;53.720;10.014;2023-05-10T13:25:13;11.45;;;9.60;;
38581;SDS011;24349;53.720;10.014;2023-05-10T13:27:39;10.43;;;8.70;;
38581;SDS011;24349;53.720;10.014;2023-05-10T13:30:05;10.05;;;9.02;;
38581;SDS011;24349;53.720;10.014;2023-05-10T13:32:32;9.93;;;8.82;;
38581;SDS011;24349;53.720;10.014;2023-05-10T13:34:58;7.15;;;5.28;;
38581;SDS011;24349;53.720;10.014;2023-05-10T13:37:23;6.63;;;3.90;;
38581;SDS011;24349;53.720;10.014;2023-05-10T13:39:49;6.72;;;5.28;;
38581;SDS011;24349;53.720;10.014;2023-05-10T13:42:15;8.02;;;6.20;;
38581;SDS011;24349;53.720;10.014;2023-05-10T13:44:40;10.82;;;9.02;;
38581;SDS011;24349;53.720;10.014;2023-05-10T13:47:06;11.40;;;9.52;;
38581;SDS011;24349;53.720;10.014;2023-05-10T13:49:32;8.98;;;6.65;;
38581;SDS011;24349;53.720;10.014;2023-05-10T13:51:58;10.13;;;8.50;;
38581;SDS011;24349;53.720;10.014;2023-05-10T13:54:26;9.60;;;7.65;;
38581;SDS011;24349;53.720;10.014;2023-05-10T13:56:54;9.52;;;7.72;;
38581;SDS011;24349;53.720;10.014;2023-05-10T13:59:19;8.45;;;7.10;;
38581;SDS011;24349;53.720;10.014;2023-05-10T14:01:45;9.93;;;7.72;;
38581;SDS011;24349;53.720;10.014;2023-05-10T14:04:11;9.18;;;8.15;;
38581;SDS011;24349;53.720;10.014;2023-05-10T14:06:36;11.70;;;8.20;;
38581;SDS011;24349;53.720;10.014;2023-05-10T14:09:02;8.40;;;7.50;;
38581;SDS011;24349;53.720;10.014;2023-05-10T14:11:28;8.90;;;6.40;;
38581;SDS011;24349;53.720;10.014;2023-05-10T14:13:54;7.72;;;6.53;;
38581;SDS011;24349;53.720;10.014;2023-05-10T14:16:20;7.40;;;5.45;;
38581;SDS011;24349;53.720;10.014;2023-05-10T14:18:46;6.88;;;5.43;;
38581;SDS011;24349;53.720;10.014;2023-05-10T14:21:12;8.18;;;6.60;;
38581;SDS011;24349;53.720;10.014;2023-05-10T14:23:38;7.85;;;6.40;;
38581;SDS011;24349;53.720;10.014;2023-05-10T14:26:04;8.10;;;6.50;;
38581;SDS011;24349;53.720;10.014;2023-05-10T14:28:29;8.48;;;6.40;;
38581;SDS011;24349;53.720;10.014;2023-05-10T14:30:55;9.32;;;7.45;;
38581;SDS011;24349;53.720;10.014;2023-05-10T14:33:21;7.63;;;5.88;;
38581;SDS011;24349;53.720;10.014;2023-05-10T14:35:47;9.20;;;7.43;;
38581;SDS011;24349;53.720;10.014;2023-05-10T14:38:13;8.48;;;6.47;;
38581;SDS011;24349;53.720;10.014;2023-05-10T14:40:39;9.30;;;7.65;;
38581;SDS011;24349;53.720;10.014;2023-05-10T14:43:05;8.18;;;7.28;;
38581;SDS011;24349;53.720;10.014;2023-05-10T14:45:31;8.57;;;7.47;;
38581;SDS011;24349;53.720;10.014;2023-05-10T14:47:57;8.30;;;7.40;;
38581;SDS011;24349;53.720;10.014;2023-05-10T14:50:23;9.15;;;7.28;;
38581;SDS011;24349;53.720;10.014;2023-05-10T14:52:48;8.25;;;7.20;;
38581;SDS011;24349;53.720;10.014;2023-05-10T14:55:15;8.40;;;7.18;;
38581;SDS011;24349;53.720;10.014;2023-05-10T14:57:40;8.38;;;7.25;;
38581;SDS011;24349;53.720;10.014;2023-05-10T15:00:06;9.43;;;7.15;;
38581;SDS011;24349;53.720;10.014;2023-05-10T15:02:32;8.57;;;7.28;;
38581;SDS011;24349;53.720;10.014;2023-05-10T15:04:58;10.70;;;8.23;;